DEECK VNRC-VNLK
Flight info
| Callsign | DEECK |
|---|---|
| Flight time | 0h 23m |
| Altitude | 9000 |
| Route | DCT |
| Aircraft | PC6/L-GS/L |
Departure
| Time | 2026-02-05 15:28 |
|---|---|
| Airport | Ramechhap Airport (VNRC) |
Arrival
| Time | 2026-02-05 15:51 |
|---|---|
| Airport | Tenzing-Hillary Airport (VNLK) |
| Time | Latitude | Longitude | Altitude | Speed | Heading |
|---|---|---|---|---|---|
| 2026-02-05 15:18 | 27.39404 | 86.06092 | 1631 ft | 0 kts | 218° |
| 2026-02-05 15:23 | 27.39396 | 86.06079 | 1631 ft | 6 kts | 265° |
| 2026-02-05 15:24 | 27.39395 | 86.06078 | 1631 ft | 0 kts | 265° |
| 2026-02-05 15:24 | 27.39400 | 86.06060 | 1633 ft | 3 kts | 305° |
| 2026-02-05 15:24 | 27.39504 | 86.06117 | 1632 ft | 7 kts | 14° |
| 2026-02-05 15:25 | 27.39507 | 86.06104 | 1632 ft | 0 kts | 218° |
| 2026-02-05 15:26 | 27.39503 | 86.06100 | 1632 ft | 9 kts | 215° |
| 2026-02-05 15:26 | 27.38692 | 86.05479 | 1979 ft | 87 kts | 214° |
| 2026-02-05 15:26 | 27.38178 | 86.05109 | 2323 ft | 93 kts | 209° |
| 2026-02-05 15:27 | 27.37941 | 86.06266 | 3546 ft | 119 kts | 10° |
| 2026-02-05 15:27 | 27.38831 | 86.06365 | 3731 ft | 126 kts | 2° |
| 2026-02-05 15:28 | 27.40505 | 86.06656 | 4132 ft | 130 kts | 11° |
| 2026-02-05 15:28 | 27.42058 | 86.07570 | 4662 ft | 127 kts | 33° |
| 2026-02-05 15:29 | 27.44049 | 86.09503 | 5317 ft | 131 kts | 60° |
| 2026-02-05 15:30 | 27.44758 | 86.11338 | 5816 ft | 133 kts | 78° |
| 2026-02-05 15:30 | 27.44609 | 86.13375 | 6273 ft | 131 kts | 109° |
| 2026-02-05 15:31 | 27.44063 | 86.15334 | 6654 ft | 133 kts | 103° |
| 2026-02-05 15:31 | 27.43606 | 86.17369 | 7142 ft | 136 kts | 105° |
| 2026-02-05 15:31 | 27.43433 | 86.18394 | 7349 ft | 135 kts | 97° |
| 2026-02-05 15:32 | 27.43735 | 86.20456 | 7725 ft | 133 kts | 60° |
| 2026-02-05 15:32 | 27.44992 | 86.21998 | 7981 ft | 134 kts | 39° |
| 2026-02-05 15:33 | 27.47106 | 86.24198 | 8199 ft | 135 kts | 41° |
| 2026-02-05 15:34 | 27.48577 | 86.25487 | 8431 ft | 134 kts | 32° |
| 2026-02-05 15:34 | 27.50161 | 86.26646 | 8629 ft | 139 kts | 40° |
| 2026-02-05 15:35 | 27.51140 | 86.28539 | 9050 ft | 141 kts | 68° |
| 2026-02-05 15:35 | 27.51942 | 86.30486 | 9488 ft | 137 kts | 59° |
| 2026-02-05 15:35 | 27.52451 | 86.31375 | 9709 ft | 135 kts | 52° |
| 2026-02-05 15:36 | 27.53707 | 86.33050 | 10041 ft | 138 kts | 46° |
| 2026-02-05 15:36 | 27.55033 | 86.34612 | 10120 ft | 139 kts | 42° |
| 2026-02-05 15:37 | 27.56958 | 86.36606 | 9378 ft | 116 kts | 46° |
| 2026-02-05 15:38 | 27.57881 | 86.38003 | 9008 ft | 105 kts | 54° |
| 2026-02-05 15:38 | 27.58720 | 86.39288 | 8664 ft | 94 kts | 49° |
| 2026-02-05 15:39 | 27.59107 | 86.40629 | 8374 ft | 112 kts | 107° |
| 2026-02-05 15:39 | 27.58842 | 86.41214 | 8449 ft | 132 kts | 124° |
| 2026-02-05 15:39 | 27.57592 | 86.42212 | 8767 ft | 112 kts | 179° |
| 2026-02-05 15:40 | 27.56677 | 86.40965 | 8862 ft | 131 kts | 275° |
| 2026-02-05 15:40 | 27.57801 | 86.39669 | 9272 ft | 127 kts | 5° |
| 2026-02-05 15:41 | 27.58590 | 86.42548 | 9873 ft | 135 kts | 87° |
| 2026-02-05 15:42 | 27.59051 | 86.44478 | 9992 ft | 136 kts | 68° |
| 2026-02-05 15:42 | 27.59502 | 86.46504 | 10481 ft | 133 kts | 90° |
| 2026-02-05 15:43 | 27.59020 | 86.48431 | 11345 ft | 129 kts | 121° |
| 2026-02-05 15:43 | 27.58531 | 86.49248 | 11700 ft | 123 kts | 130° |
| 2026-02-05 15:43 | 27.57497 | 86.50801 | 12045 ft | 143 kts | 97° |
| 2026-02-05 15:44 | 27.57681 | 86.53044 | 12526 ft | 144 kts | 74° |
| 2026-02-05 15:44 | 27.58485 | 86.55074 | 12854 ft | 145 kts | 56° |
| 2026-02-05 15:45 | 27.60403 | 86.57526 | 12668 ft | 137 kts | 46° |
| 2026-02-05 15:46 | 27.61702 | 86.58933 | 12439 ft | 123 kts | 43° |
| 2026-02-05 15:46 | 27.62541 | 86.60734 | 12667 ft | 139 kts | 76° |
| 2026-02-05 15:47 | 27.63031 | 86.62889 | 12653 ft | 143 kts | 72° |
| 2026-02-05 15:47 | 27.63391 | 86.63937 | 12514 ft | 146 kts | 66° |
| 2026-02-05 15:47 | 27.63946 | 86.65991 | 11978 ft | 130 kts | 73° |
| 2026-02-05 15:48 | 27.64522 | 86.67903 | 11169 ft | 118 kts | 60° |
| 2026-02-05 15:48 | 27.65620 | 86.68991 | 10440 ft | 104 kts | 29° |
| 2026-02-05 15:49 | 27.67223 | 86.70474 | 9509 ft | 99 kts | 41° |
| 2026-02-05 15:50 | 27.68050 | 86.71672 | 9057 ft | 92 kts | 59° |
| 2026-02-05 15:50 | 27.68611 | 86.72806 | 9229 ft | 62 kts | 53° |
| 2026-02-05 15:51 | 27.68778 | 86.73140 | 9404 ft | 0 kts | 59° |
| 2026-02-05 15:51 | 27.68783 | 86.73156 | 9402 ft | 15 kts | 98° |
| 2026-02-05 15:51 | 27.68757 | 86.73170 | 9405 ft | 0 kts | 204° |